Time;durP1;ratioP1;P1;durP2;ratioP2;P2;SDS_P1;SDS_P2;PMS_P1;PMS_P2;Temp;Humidity;BMP_temperature;BMP_pressure;BME280_temperature;BME280_humidity;BME280_pressure;Samples;Min_cycle;Max_cycle;Signal;HPM_P1;HPM_P2
2022/04/11 00:00:27;;;;;;;4.22;2.20;;;9.90;81.80;;;;;;5031297;28;20053;-67
2022/04/11 00:02:52;;;;;;;2.63;1.95;;;9.80;81.50;;;;;;5019426;28;20477;-67
2022/04/11 00:05:18;;;;;;;5.85;2.25;;;9.80;81.30;;;;;;5018595;28;20035;-67
2022/04/11 00:07:44;;;;;;;4.47;2.17;;;9.80;81.30;;;;;;5032382;28;20037;-67
2022/04/11 00:10:10;;;;;;;5.35;2.53;;;9.70;81.10;;;;;;5031363;28;20072;-67
2022/04/11 00:12:37;;;;;;;6.18;2.50;;;9.70;81.20;;;;;;5019154;28;20038;-67
2022/04/11 00:15:07;;;;;;;4.97;2.25;;;9.70;81.30;;;;;;5012651;28;20048;-67
2022/04/11 00:17:33;;;;;;;6.20;2.30;;;9.60;81.40;;;;;;5025433;28;20117;-67
2022/04/11 00:19:59;;;;;;;7.13;2.65;;;9.60;81.60;;;;;;5032368;28;20049;-67
2022/04/11 00:22:24;;;;;;;3.97;2.10;;;9.50;81.60;;;;;;5031655;28;20041;-67
2022/04/11 00:24:51;;;;;;;4.53;2.20;;;9.50;82.00;;;;;;5023630;28;20045;-67
2022/04/11 00:27:18;;;;;;;6.38;2.58;;;9.50;82.00;;;;;;5025329;28;20117;-67
2022/04/11 00:29:43;;;;;;;11.10;2.60;;;9.50;81.90;;;;;;5023537;28;20128;-67
2022/04/11 00:32:09;;;;;;;8.55;2.70;;;9.40;81.90;;;;;;5031104;28;20446;-68
2022/04/11 00:34:35;;;;;;;10.13;2.20;;;9.40;81.90;;;;;;5031742;28;20071;-67
2022/04/11 00:37:00;;;;;;;6.65;2.45;;;9.40;82.30;;;;;;5029862;28;20069;-67
2022/04/11 00:39:26;;;;;;;5.70;2.67;;;9.40;81.70;;;;;;5030858;28;20033;-67
2022/04/11 00:41:52;;;;;;;5.88;2.45;;;9.30;81.50;;;;;;5029470;28;20029;-67
2022/04/11 00:44:18;;;;;;;10.25;2.60;;;9.30;81.50;;;;;;5043175;28;20038;-68
2022/04/11 00:46:44;;;;;;;5.32;2.50;;;9.20;81.40;;;;;;5014067;28;20037;-67
2022/04/11 00:49:10;;;;;;;6.10;2.45;;;9.20;81.40;;;;;;5030234;28;20641;-67
2022/04/11 00:51:36;;;;;;;8.68;2.78;;;9.20;81.50;;;;;;5013846;28;20579;-67
2022/04/11 00:54:02;;;;;;;4.88;2.38;;;9.10;81.50;;;;;;5012133;28;20068;-67
2022/04/11 00:56:29;;;;;;;5.03;2.83;;;9.10;81.40;;;;;;5016295;28;20025;-67
2022/04/11 00:58:55;;;;;;;4.55;2.53;;;9.10;81.50;;;;;;5019564;28;20492;-67
2022/04/11 01:01:24;;;;;;;15.05;2.80;;;9.00;81.40;;;;;;5028265;28;20512;-66
2022/04/11 01:03:51;;;;;;;5.75;2.25;;;9.00;81.50;;;;;;5028647;28;20484;-65
2022/04/11 01:06:17;;;;;;;3.88;2.42;;;9.00;81.50;;;;;;5031311;28;20029;-65
2022/04/11 01:08:43;;;;;;;8.05;2.53;;;8.90;81.40;;;;;;5030805;28;20385;-66
2022/04/11 01:11:08;;;;;;;5.80;2.50;;;8.90;81.50;;;;;;5019317;28;20072;-66
2022/04/11 01:13:34;;;;;;;4.05;2.20;;;8.80;81.50;;;;;;5030209;28;20041;-66
2022/04/11 01:16:10;;;;;;;4.35;2.28;;;8.80;81.40;;;;;;5030035;28;20504;-66
2022/04/11 01:18:38;;;;;;;5.30;2.10;;;8.80;81.30;;;;;;5027951;28;20045;-66
2022/04/11 01:21:06;;;;;;;4.93;2.30;;;8.80;81.30;;;;;;5034826;28;20029;-66
2022/04/11 01:23:32;;;;;;;5.65;2.90;;;8.70;81.30;;;;;;5016547;28;20029;-66
2022/04/11 01:25:58;;;;;;;6.68;2.42;;;8.70;81.20;;;;;;5020242;28;20025;-66
2022/04/11 01:28:24;;;;;;;4.60;2.42;;;8.60;81.30;;;;;;5025572;28;20040;-66
2022/04/11 01:30:54;;;;;;;10.50;2.28;;;8.60;81.30;;;;;;5030146;28;20087;-66
2022/04/11 01:33:26;;;;;;;3.22;2.28;;;8.60;81.30;;;;;;5025265;28;20026;-66
2022/04/11 01:35:52;;;;;;;4.82;2.30;;;8.60;81.40;;;;;;5010126;28;20039;-66
2022/04/11 01:38:18;;;;;;;4.53;1.83;;;8.50;81.50;;;;;;5011123;28;20026;-66
2022/04/11 01:40:48;;;;;;;5.18;2.25;;;8.50;81.50;;;;;;5021204;28;20041;-66
2022/04/11 01:43:15;;;;;;;7.07;2.47;;;8.50;81.50;;;;;;5010158;28;20469;-67
2022/04/11 01:45:41;;;;;;;6.93;2.28;;;8.40;81.50;;;;;;5039631;28;20508;-66
2022/04/11 01:48:07;;;;;;;5.18;2.30;;;8.40;81.50;;;;;;5028779;28;20018;-66
2022/04/11 01:50:32;;;;;;;5.07;2.55;;;8.40;81.50;;;;;;5017300;28;20060;-66
2022/04/11 01:53:13;;;;;;;5.68;2.08;;;8.30;81.50;;;;;;5018317;28;20532;-66
2022/04/11 01:55:41;;;;;;;5.30;2.50;;;8.30;81.60;;;;;;5025901;28;20049;-66
2022/04/11 01:58:08;;;;;;;5.28;2.35;;;8.30;81.60;;;;;;5010003;28;20367;-66
2022/04/11 02:00:35;;;;;;;6.80;2.42;;;8.30;81.60;;;;;;5022625;28;20060;-66
2022/04/11 02:03:03;;;;;;;4.28;2.30;;;8.20;81.60;;;;;;5019771;28;20469;-66
2022/04/11 02:05:29;;;;;;;3.30;2.13;;;8.30;81.80;;;;;;5026367;28;20029;-66
2022/04/11 02:07:56;;;;;;;4.13;1.73;;;8.20;81.80;;;;;;5029511;28;20060;-66
2022/04/11 02:10:24;;;;;;;3.72;1.92;;;8.20;81.80;;;;;;5015328;28;20053;-66
2022/04/11 02:12:50;;;;;;;3.92;1.90;;;8.20;81.90;;;;;;5020639;28;20373;-66
2022/04/11 02:15:17;;;;;;;5.78;1.80;;;8.10;81.90;;;;;;5010870;28;20030;-66
2022/04/11 02:17:44;;;;;;;5.53;1.83;;;8.10;82.00;;;;;;5010819;28;20040;-66
2022/04/11 02:20:11;;;;;;;4.10;1.80;;;8.10;82.10;;;;;;5023636;28;20026;-66
2022/04/11 02:22:47;;;;;;;5.80;1.90;;;8.00;82.10;;;;;;5021058;28;20072;-66
2022/04/11 02:25:14;;;;;;;3.65;1.58;;;8.00;82.00;;;;;;5020137;28;20033;-66
2022/04/11 02:27:41;;;;;;;4.90;2.00;;;8.00;82.10;;;;;;5019072;28;20387;-66
2022/04/11 02:30:08;;;;;;;4.30;2.33;;;7.90;82.20;;;;;;5042816;28;20041;-66
2022/04/11 02:32:34;;;;;;;4.97;2.10;;;7.90;82.10;;;;;;5030489;28;20029;-66
2022/04/11 02:35:00;;;;;;;5.20;1.85;;;7.90;82.20;;;;;;5024781;28;20564;-66
2022/04/11 02:37:26;;;;;;;3.53;1.92;;;7.90;82.20;;;;;;5027951;28;20060;-66
2022/04/11 02:39:52;;;;;;;5.57;2.30;;;7.80;82.10;;;;;;5034054;28;20069;-66
2022/04/11 02:42:26;;;;;;;2.55;1.70;;;7.80;82.20;;;;;;5032462;28;20040;-66
2022/04/11 02:44:59;;;;;;;2.83;2.03;;;7.80;82.40;;;;;;5032102;28;20041;-66
2022/04/11 02:47:25;;;;;;;9.43;2.22;;;7.80;82.50;;;;;;5032433;28;20393;-66
2022/04/11 02:49:51;;;;;;;6.90;2.22;;;7.70;82.60;;;;;;5032418;28;20362;-65
2022/04/11 02:52:32;;;;;;;4.10;2.13;;;7.70;82.80;;;;;;5031685;28;20037;-66
2022/04/11 02:54:59;;;;;;;7.15;2.42;;;7.70;82.90;;;;;;5024517;28;20045;-66
2022/04/11 02:57:24;;;;;;;5.38;2.40;;;7.60;83.00;;;;;;5029939;28;20037;-66
2022/04/11 02:59:51;;;;;;;5.53;2.28;;;7.60;83.10;;;;;;5031701;28;20041;-66
2022/04/11 03:02:18;;;;;;;5.18;2.25;;;7.60;83.20;;;;;;5032136;28;20067;-70
2022/04/11 03:04:44;;;;;;;3.67;2.20;;;7.60;83.20;;;;;;5031678;28;20040;-66
2022/04/11 03:07:18;;;;;;;;;;;7.60;83.30;;;;;;5027832;28;20068;-66
2022/04/11 03:09:44;;;;;;;6.75;2.10;;;7.50;83.40;;;;;;5023958;28;19917;-65
2022/04/11 03:12:11;;;;;;;2.72;1.88;;;7.50;83.30;;;;;;5026400;28;20030;-66
2022/04/11 03:14:37;;;;;;;6.28;2.20;;;7.50;83.60;;;;;;5024282;28;20032;-66
2022/04/11 03:17:04;;;;;;;5.30;2.10;;;7.50;83.80;;;;;;5017885;28;20469;-66
2022/04/11 03:19:33;;;;;;;4.57;2.28;;;7.40;83.80;;;;;;5028641;28;20029;-66
2022/04/11 03:21:59;;;;;;;5.68;2.55;;;7.40;84.00;;;;;;5031058;28;20482;-66
2022/04/11 03:24:25;;;;;;;4.40;2.20;;;7.40;84.10;;;;;;5030953;28;20366;-66
2022/04/11 03:26:52;;;;;;;7.60;2.70;;;7.40;84.20;;;;;;5029414;28;20504;-65
2022/04/11 03:29:24;;;;;;;4.38;2.17;;;7.40;84.40;;;;;;5030802;28;20053;-65
2022/04/11 03:31:51;;;;;;;5.22;2.80;;;7.40;84.50;;;;;;5030826;28;20041;-65
2022/04/11 03:34:18;;;;;;;6.88;2.50;;;7.30;84.50;;;;;;5028869;28;20109;-66
2022/04/11 03:36:44;;;;;;;5.22;2.40;;;7.30;84.70;;;;;;5032008;28;20159;-65
2022/04/11 03:39:10;;;;;;;7.07;2.30;;;7.30;84.70;;;;;;5030736;28;20067;-65
2022/04/11 03:41:39;;;;;;;4.60;2.30;;;7.30;84.90;;;;;;5029655;28;20103;-65
2022/04/11 03:44:13;;;;;;;4.13;2.28;;;7.30;84.90;;;;;;5030330;28;20453;-65
2022/04/11 03:46:41;;;;;;;4.80;2.55;;;7.30;85.00;;;;;;5030620;28;20082;-65
2022/04/11 03:49:10;;;;;;;5.07;2.35;;;7.20;85.00;;;;;;5030481;28;20033;-65
2022/04/11 03:51:36;;;;;;;5.03;2.42;;;7.20;85.10;;;;;;5029962;28;20044;-65
2022/04/11 03:54:03;;;;;;;3.75;2.40;;;7.20;85.20;;;;;;5029813;28;20140;-66
2022/04/11 03:56:29;;;;;;;4.05;2.45;;;7.20;85.40;;;;;;5028126;28;20033;-65
2022/04/11 03:58:57;;;;;;;4.28;2.17;;;7.30;85.50;;;;;;5026362;28;20511;-65
2022/04/11 04:01:23;;;;;;;6.72;2.10;;;7.20;85.60;;;;;;5027290;28;20073;-65
2022/04/11 04:03:49;;;;;;;6.55;2.30;;;7.30;85.70;;;;;;5031085;28;20030;-65
2022/04/11 04:06:15;;;;;;;5.05;2.17;;;7.30;85.90;;;;;;5032322;28;20392;-65
2022/04/11 04:08:45;;;;;;;3.75;1.95;;;7.20;85.90;;;;;;5030479;28;20136;-65
2022/04/11 04:11:16;;;;;;;7.03;2.10;;;7.30;86.10;;;;;;5030060;28;20056;-65
2022/04/11 04:14:05;;;;;;;4.35;2.30;;;7.30;86.10;;;;;;5029164;28;20037;-65
2022/04/11 04:16:35;;;;;;;3.40;2.00;;;7.20;86.10;;;;;;5030230;28;20392;-65
2022/04/11 04:19:05;;;;;;;4.32;2.20;;;7.20;86.30;;;;;;5030240;28;20037;-65
2022/04/11 04:21:31;;;;;;;3.40;2.20;;;7.20;86.40;;;;;;5014928;28;20053;-65
2022/04/11 04:23:56;;;;;;;7.05;2.70;;;7.20;86.50;;;;;;5011652;28;20060;-65
2022/04/11 04:26:25;;;;;;;10.48;2.10;;;7.20;86.70;;;;;;5014575;28;20358;-65
2022/04/11 04:28:51;;;;;;;5.72;2.20;;;7.20;86.80;;;;;;5030926;28;20416;-66
2022/04/11 04:31:20;;;;;;;7.03;2.42;;;7.20;86.90;;;;;;5016867;28;20042;-65
2022/04/11 04:33:46;;;;;;;3.67;2.17;;;7.20;87.00;;;;;;5030638;28;20033;-65
2022/04/11 04:36:13;;;;;;;3.83;2.50;;;7.20;87.10;;;;;;5029750;28;20028;-65
2022/04/11 04:38:39;;;;;;;4.50;2.08;;;7.20;87.20;;;;;;5030575;28;20481;-65
2022/04/11 04:41:05;;;;;;;3.83;2.00;;;7.20;87.30;;;;;;5017611;28;20041;-65
2022/04/11 04:43:30;;;;;;;6.57;2.00;;;7.20;87.40;;;;;;5023606;28;20469;-65
2022/04/11 04:45:58;;;;;;;4.65;1.90;;;7.20;87.60;;;;;;5015796;28;20393;-65
2022/04/11 04:48:50;;;;;;;8.10;2.25;;;7.30;87.60;;;;;;5028756;28;20072;-66
2022/04/11 04:51:20;;;;;;;5.20;2.10;;;7.30;87.70;;;;;;5020180;28;20045;-65
2022/04/11 04:53:52;;;;;;;5.05;2.08;;;7.30;87.90;;;;;;5030217;28;20025;-65
2022/04/11 04:56:18;;;;;;;4.32;1.95;;;7.20;87.80;;;;;;5019330;28;20530;-66
2022/04/11 04:58:45;;;;;;;11.02;3.00;;;7.30;88.00;;;;;;5014998;28;20030;-65
2022/04/11 05:01:13;;;;;;;4.18;2.40;;;7.20;88.00;;;;;;5017170;28;20053;-65
2022/04/11 05:03:39;;;;;;;3.13;2.33;;;7.30;88.10;;;;;;5016964;28;20425;-65
2022/04/11 05:06:06;;;;;;;5.85;2.20;;;7.30;88.20;;;;;;5028959;28;20056;-65
2022/04/11 05:08:32;;;;;;;4.15;1.92;;;7.30;88.30;;;;;;5018341;28;20044;-66
2022/04/11 05:11:00;;;;;;;6.97;2.35;;;7.30;88.40;;;;;;5023143;28;20068;-65
2022/04/11 05:13:26;;;;;;;3.55;2.30;;;7.30;88.50;;;;;;5028372;28;20025;-66
2022/04/11 05:15:57;;;;;;;3.83;2.35;;;7.30;88.70;;;;;;5028760;28;20496;-65
2022/04/11 05:18:26;;;;;;;5.70;2.50;;;7.30;88.70;;;;;;5027817;28;21300;-65
2022/04/11 05:20:53;;;;;;;4.07;2.38;;;7.30;88.90;;;;;;5027944;28;20454;-65
2022/04/11 05:23:21;;;;;;;11.88;2.30;;;7.30;89.00;;;;;;5029638;28;20025;-65
2022/04/11 05:25:47;;;;;;;3.88;2.28;;;7.40;89.10;;;;;;5024325;28;20030;-65
2022/04/11 05:28:14;;;;;;;11.27;2.42;;;7.30;89.10;;;;;;5009915;28;20030;-64
2022/04/11 05:30:48;;;;;;;8.25;2.70;;;7.40;89.30;;;;;;5014559;28;20136;-64
2022/04/11 05:33:17;;;;;;;5.95;2.97;;;7.30;89.30;;;;;;5025085;28;20021;-64
2022/04/11 05:35:43;;;;;;;5.38;2.42;;;7.40;89.40;;;;;;5024897;28;20033;-65
2022/04/11 05:38:14;;;;;;;4.57;2.70;;;7.40;89.50;;;;;;5023701;28;20021;-66
2022/04/11 05:40:40;;;;;;;17.77;2.53;;;7.30;89.50;;;;;;5023189;28;20397;-66
2022/04/11 05:43:07;;;;;;;5.88;2.45;;;7.40;89.60;;;;;;5043151;28;20049;-66
2022/04/11 05:45:33;;;;;;;5.45;2.05;;;7.40;89.70;;;;;;5027331;28;20021;-66
2022/04/11 05:47:59;;;;;;;6.90;2.17;;;7.40;89.80;;;;;;5027484;28;20044;-66
2022/04/11 05:50:24;;;;;;;4.57;2.03;;;7.40;89.80;;;;;;5015261;28;20547;-66
2022/04/11 05:52:50;;;;;;;7.88;2.75;;;7.40;89.80;;;;;;5027453;28;20037;-67
2022/04/11 05:55:16;;;;;;;5.47;2.60;;;7.50;90.20;;;;;;5024808;28;20026;-66
2022/04/11 05:57:43;;;;;;;7.10;2.65;;;7.40;89.80;;;;;;5020272;28;20037;-66
2022/04/11 06:00:11;;;;;;;5.90;2.20;;;7.50;89.90;;;;;;5031512;28;20037;-66
2022/04/11 06:02:40;;;;;;;5.38;2.20;;;7.50;90.00;;;;;;5030682;28;20030;-74
2022/04/11 06:05:15;;;;;;;11.00;2.40;;;7.50;90.00;;;;;;5030281;28;20029;-66
2022/04/11 06:07:42;;;;;;;7.95;2.58;;;7.50;89.90;;;;;;5028997;28;20030;-66
2022/04/11 06:10:10;;;;;;;9.93;2.40;;;7.50;89.80;;;;;;5030547;28;20041;-64
2022/04/11 06:12:36;;;;;;;3.35;2.00;;;7.60;89.90;;;;;;5029826;28;20034;-64
2022/04/11 06:15:04;;;;;;;7.38;2.30;;;7.60;89.90;;;;;;5028812;28;20535;-63
2022/04/11 06:17:30;;;;;;;5.57;2.10;;;7.60;90.00;;;;;;5029430;28;20036;-66
2022/04/11 06:19:57;;;;;;;8.65;1.80;;;7.60;90.00;;;;;;5031901;28;20155;-65
2022/04/11 06:22:24;;;;;;;4.78;2.20;;;7.60;90.00;;;;;;5031188;28;20037;-65
2022/04/11 06:25:05;;;;;;;3.92;2.25;;;7.60;90.00;;;;;;5043413;28;20105;-65
2022/04/11 06:27:32;;;;;;;5.10;2.40;;;7.60;90.00;;;;;;5046558;28;20428;-65
2022/04/11 06:29:58;;;;;;;7.03;2.35;;;7.70;90.00;;;;;;5030757;28;20022;-65
2022/04/11 06:32:27;;;;;;;15.07;2.72;;;7.70;90.00;;;;;;5032396;28;20128;-64
2022/04/11 06:34:54;;;;;;;5.57;2.85;;;7.70;90.00;;;;;;5023732;28;20553;-72
2022/04/11 06:37:21;;;;;;;5.82;2.20;;;7.60;90.00;;;;;;5019430;28;20176;-64
2022/04/11 06:39:47;;;;;;;8.43;2.50;;;7.70;90.10;;;;;;5031760;28;20056;-67
2022/04/11 06:42:13;;;;;;;5.95;3.00;;;7.70;90.10;;;;;;5030760;28;20037;-67
2022/04/11 06:44:40;;;;;;;5.47;1.92;;;7.80;90.10;;;;;;5031181;28;20065;-66
2022/04/11 06:47:12;;;;;;;4.03;2.10;;;7.80;90.10;;;;;;5025253;28;20026;-66
2022/04/11 06:49:39;;;;;;;6.25;1.80;;;7.80;90.00;;;;;;5012254;28;20053;-66
2022/04/11 06:52:06;;;;;;;3.42;1.80;;;7.80;90.00;;;;;;5034192;28;20095;-66
2022/04/11 06:54:31;;;;;;;2.88;1.52;;;7.80;90.00;;;;;;5033877;28;20424;-66
2022/04/11 06:56:57;;;;;;;7.28;2.25;;;7.80;90.00;;;;;;5024779;28;20030;-66
2022/04/11 06:59:23;;;;;;;11.25;2.20;;;7.90;90.00;;;;;;5016166;28;20359;-67
2022/04/11 07:01:51;;;;;;;7.68;2.17;;;7.80;89.90;;;;;;5023375;28;20046;-66
2022/04/11 07:04:18;;;;;;;7.80;2.38;;;7.80;89.90;;;;;;5012347;28;20060;-65
2022/04/11 07:06:44;;;;;;;6.55;2.17;;;7.90;90.00;;;;;;5026983;28;20373;-64
2022/04/11 07:09:10;;;;;;;7.55;2.20;;;7.90;90.00;;;;;;5020427;28;20037;-64
2022/04/11 07:11:36;;;;;;;6.32;1.58;;;7.90;90.00;;;;;;5032466;28;20056;-64
2022/04/11 07:14:02;;;;;;;5.15;2.47;;;7.90;90.00;;;;;;5026557;28;20029;-64
2022/04/11 07:16:27;;;;;;;8.20;2.13;;;8.00;90.00;;;;;;5014613;28;20041;-64
2022/04/11 07:18:53;;;;;;;5.43;2.53;;;8.00;90.00;;;;;;5032110;28;20030;-64
2022/04/11 07:21:19;;;;;;;4.95;1.67;;;8.00;89.90;;;;;;5032299;28;20029;-64
2022/04/11 07:23:45;;;;;;;8.73;1.90;;;8.00;89.70;;;;;;5020994;28;20045;-64
2022/04/11 07:26:10;;;;;;;6.18;1.42;;;8.10;89.80;;;;;;5031179;28;20061;-64
2022/04/11 07:28:36;;;;;;;7.07;1.67;;;8.10;89.70;;;;;;5013683;28;20388;-64
2022/04/11 07:31:02;;;;;;;7.00;1.90;;;8.10;89.70;;;;;;5026298;28;20038;-65
2022/04/11 07:33:27;;;;;;;6.05;2.15;;;8.20;89.70;;;;;;5012517;28;20592;-64
2022/04/11 07:35:53;;;;;;;5.35;2.00;;;8.20;89.60;;;;;;5028192;28;20487;-64
2022/04/11 07:38:19;;;;;;;7.38;1.88;;;8.20;89.60;;;;;;5024050;28;20026;-64
2022/04/11 07:40:45;;;;;;;10.55;1.80;;;8.20;89.60;;;;;;5028263;28;20397;-64
2022/04/11 07:43:11;;;;;;;2.70;1.27;;;8.30;89.70;;;;;;5023456;28;20030;-64
2022/04/11 07:45:37;;;;;;;13.40;1.70;;;8.30;89.80;;;;;;5016457;28;20075;-64
2022/04/11 07:48:03;;;;;;;2.58;1.40;;;8.30;89.90;;;;;;5031900;28;20469;-64
2022/04/11 07:50:29;;;;;;;3.88;1.48;;;8.40;90.20;;;;;;5015722;28;20034;-65
2022/04/11 07:52:54;;;;;;;8.80;1.92;;;8.40;89.70;;;;;;5012525;28;20624;-65
2022/04/11 07:55:20;;;;;;;3.65;1.55;;;8.40;89.70;;;;;;5017916;28;20087;-65
2022/04/11 07:57:46;;;;;;;3.17;1.85;;;8.50;89.80;;;;;;5021825;28;20421;-65
2022/04/11 08:00:12;;;;;;;6.32;2.13;;;8.50;89.70;;;;;;5016623;28;20499;-65
2022/04/11 08:02:41;;;;;;;3.83;1.80;;;8.60;89.70;;;;;;5032762;28;20033;-65
2022/04/11 08:05:08;;;;;;;5.40;1.90;;;8.60;89.50;;;;;;5031084;28;20025;-65
2022/04/11 08:07:34;;;;;;;4.60;1.70;;;8.70;89.50;;;;;;5023926;28;20436;-65
2022/04/11 08:10:05;;;;;;;4.57;1.20;;;8.70;89.60;;;;;;5011841;28;20041;-65
2022/04/11 08:12:31;;;;;;;3.30;2.13;;;8.80;89.50;;;;;;5019495;28;20030;-65
2022/04/11 08:14:57;;;;;;;4.72;1.25;;;8.80;89.60;;;;;;5017426;28;20069;-65
2022/04/11 08:17:23;;;;;;;1.55;1.20;;;8.90;89.60;;;;;;5012841;28;20052;-65
2022/04/11 08:19:52;;;;;;;1.88;1.40;;;8.90;89.60;;;;;;5025650;28;20037;-65
2022/04/11 08:22:17;;;;;;;2.78;1.25;;;9.00;89.50;;;;;;5011168;28;20030;-65
2022/04/11 08:24:43;;;;;;;3.30;2.05;;;9.00;89.70;;;;;;5014405;28;20394;-65
2022/04/11 08:27:08;;;;;;;3.63;1.60;;;9.00;89.60;;;;;;5032371;28;20037;-65
2022/04/11 08:29:34;;;;;;;4.78;1.67;;;9.10;89.70;;;;;;5030349;28;20049;-65
2022/04/11 08:32:00;;;;;;;2.15;1.23;;;9.10;89.70;;;;;;5032254;28;20055;-65
2022/04/11 08:34:26;;;;;;;5.90;1.30;;;9.20;89.80;;;;;;5016265;28;20083;-65
2022/04/11 08:36:51;;;;;;;2.15;1.13;;;9.20;89.60;;;;;;5021029;28;20034;-65
2022/04/11 08:39:17;;;;;;;3.58;1.58;;;9.20;89.40;;;;;;5015464;28;20024;-65
2022/04/11 08:41:43;;;;;;;2.55;1.27;;;9.30;89.20;;;;;;5027814;28;20465;-65
2022/04/11 08:44:11;;;;;;;3.38;0.95;;;9.30;89.00;;;;;;5027412;28;20026;-65
2022/04/11 08:46:37;;;;;;;2.95;0.90;;;9.30;89.10;;;;;;5022739;28;20477;-65
2022/04/11 08:49:04;;;;;;;2.75;1.20;;;9.40;88.40;;;;;;5027328;28;20037;-65
2022/04/11 08:51:33;;;;;;;2.80;1.20;;;9.40;88.00;;;;;;5022673;28;20182;-65
2022/04/11 08:54:04;;;;;;;5.78;1.48;;;9.40;87.70;;;;;;5025907;28;20054;-65
2022/04/11 08:56:31;;;;;;;5.63;1.38;;;9.50;87.60;;;;;;5024044;28;20072;-65
2022/04/11 08:58:57;;;;;;;2.22;1.10;;;9.50;87.10;;;;;;5031100;28;20037;-65
2022/04/11 09:01:23;;;;;;;1.27;0.90;;;9.60;86.60;;;;;;5031364;28;20057;-65
2022/04/11 09:03:49;;;;;;;0.70;0.65;;;9.60;86.00;;;;;;5031088;28;20048;-65
2022/04/11 09:06:15;;;;;;;7.03;0.75;;;9.70;86.10;;;;;;5027120;28;20041;-66
2022/04/11 09:08:50;;;;;;;2.97;0.90;;;9.70;86.30;;;;;;5031122;28;20033;-65
2022/04/11 09:11:35;;;;;;;15.77;1.05;;;9.80;86.10;;;;;;5030821;28;20057;-65
2022/04/11 09:14:06;;;;;;;6.70;1.33;;;9.80;85.00;;;;;;5024257;28;20040;-66
2022/04/11 09:16:51;;;;;;;1.67;0.80;;;9.80;84.60;;;;;;5024593;28;20071;-65
2022/04/11 09:19:20;;;;;;;5.10;1.25;;;9.90;84.70;;;;;;5010835;28;20652;-66
2022/04/11 09:21:46;;;;;;;3.80;1.08;;;10.00;84.70;;;;;;5024018;28;20025;-66
2022/04/11 09:24:15;;;;;;;2.20;0.90;;;10.00;84.50;;;;;;5011713;28;20038;-66
2022/04/11 09:26:40;;;;;;;1.10;0.90;;;10.00;84.40;;;;;;5029531;28;20128;-66
2022/04/11 09:29:09;;;;;;;2.83;1.45;;;10.00;84.10;;;;;;5018744;28;20168;-66
2022/04/11 09:31:35;;;;;;;2.35;0.77;;;10.10;84.60;;;;;;5017176;28;20033;-66
2022/04/11 09:34:20;;;;;;;6.50;1.38;;;10.20;84.00;;;;;;5030031;28;20041;-66
2022/04/11 09:36:53;;;;;;;4.65;1.40;;;10.20;84.20;;;;;;5020421;28;20411;-65
2022/04/11 09:39:28;;;;;;;2.10;1.02;;;10.30;83.40;;;;;;5013788;28;20034;-65
2022/04/11 09:41:54;;;;;;;1.13;0.90;;;10.30;83.60;;;;;;5029653;28;20076;-66
2022/04/11 09:44:29;;;;;;;4.60;1.17;;;10.40;84.20;;;;;;5017460;28;20069;-65
2022/04/11 09:47:03;;;;;;;6.95;1.80;;;10.40;83.10;;;;;;5029176;28;20129;-65
2022/04/11 09:49:29;;;;;;;4.60;1.02;;;10.60;83.30;;;;;;5029594;28;20489;-65
2022/04/11 09:52:13;;;;;;;1.25;0.98;;;10.50;83.20;;;;;;5029623;28;20080;-66
2022/04/11 09:54:47;;;;;;;3.78;1.27;;;10.60;82.10;;;;;;5028990;28;20053;-65
2022/04/11 09:57:17;;;;;;;2.28;1.40;;;10.60;82.60;;;;;;5029489;28;20030;-65
2022/04/11 09:59:44;;;;;;;2.20;1.48;;;10.70;82.50;;;;;;5028974;28;20052;-65
2022/04/11 10:02:10;;;;;;;3.65;1.02;;;10.70;82.40;;;;;;5029842;28;20037;-65
2022/04/11 10:04:38;;;;;;;4.72;1.38;;;10.80;82.10;;;;;;5029687;28;20132;-65
2022/04/11 10:07:04;;;;;;;6.20;1.30;;;10.80;81.50;;;;;;5028413;28;20033;-65
2022/04/11 10:09:31;;;;;;;2.47;1.30;;;10.90;81.80;;;;;;5029844;28;20025;-65
2022/04/11 10:11:57;;;;;;;5.32;1.20;;;11.00;81.10;;;;;;5029535;28;20146;-65
2022/04/11 10:14:27;;;;;;;4.00;1.40;;;11.00;80.60;;;;;;5028572;28;20568;-66
2022/04/11 10:17:01;;;;;;;3.00;1.35;;;11.00;80.40;;;;;;5029836;28;20034;-65
2022/04/11 10:19:29;;;;;;;2.65;1.15;;;11.10;79.60;;;;;;5029526;28;20079;-65
2022/04/11 10:22:11;;;;;;;9.75;1.20;;;11.10;80.40;;;;;;5028942;28;20083;-65
2022/04/11 10:25:05;;;;;;;3.17;1.17;;;11.20;80.00;;;;;;5028310;28;20033;-65
2022/04/11 10:27:32;;;;;;;3.70;0.90;;;11.20;80.20;;;;;;5027080;28;20045;-65
2022/04/11 10:29:59;;;;;;;3.75;1.17;;;11.30;79.50;;;;;;5028566;28;20064;-65
2022/04/11 10:32:29;;;;;;;1.00;0.90;;;11.40;79.50;;;;;;5028979;28;20038;-65
2022/04/11 10:35:07;;;;;;;7.60;1.67;;;11.40;79.50;;;;;;5028540;28;20048;-65
2022/04/11 10:37:39;;;;;;;2.42;1.10;;;11.40;78.80;;;;;;5027608;28;20025;-65
2022/04/11 10:40:28;;;;;;;5.15;1.38;;;11.50;78.20;;;;;;5029077;28;20025;-66
2022/04/11 10:43:00;;;;;;;2.92;1.20;;;11.50;78.00;;;;;;5023597;28;20042;-66
2022/04/11 10:45:39;;;;;;;3.95;1.17;;;11.60;78.60;;;;;;5032491;28;20045;-66
2022/04/11 10:48:06;;;;;;;3.72;1.48;;;11.60;78.20;;;;;;5029364;28;20041;-65
2022/04/11 10:50:36;;;;;;;3.40;1.30;;;11.70;78.60;;;;;;5032860;28;20044;-66
2022/04/11 10:53:15;;;;;;;4.15;1.40;;;11.70;78.20;;;;;;5034109;28;20029;-65
2022/04/11 10:56:05;;;;;;;4.40;1.40;;;11.80;78.10;;;;;;5020669;28;20539;-65
2022/04/11 10:58:49;;;;;;;3.80;1.40;;;11.80;78.20;;;;;;5023202;28;20076;-65
2022/04/11 11:01:42;;;;;;;7.65;1.30;;;11.90;78.00;;;;;;5033693;28;20409;-65
2022/04/11 11:04:19;;;;;;;3.87;1.70;;;11.90;77.60;;;;;;5026065;28;20026;-66
2022/04/11 11:06:45;;;;;;;1.55;0.65;;;12.00;77.20;;;;;;5026953;28;20295;-65
2022/04/11 11:09:18;;;;;;;2.35;1.20;;;12.00;77.60;;;;;;5029519;28;20030;-65
2022/04/11 11:11:46;;;;;;;5.50;1.38;;;12.10;78.20;;;;;;5024877;28;20049;-66
2022/04/11 11:14:41;;;;;;;4.47;1.30;;;12.10;77.00;;;;;;5018445;28;20064;-67
2022/04/11 11:17:07;;;;;;;3.67;1.45;;;12.10;76.50;;;;;;5026665;28;20026;-66
2022/04/11 11:20:06;;;;;;;1.95;1.10;;;12.20;76.00;;;;;;5026703;28;20144;-66
2022/04/11 11:22:34;;;;;;;2.28;1.30;;;12.20;78.00;;;;;;5032813;28;20681;-68
2022/04/11 11:25:18;;;;;;;6.72;1.92;;;12.30;77.40;;;;;;5024883;28;20063;-65
2022/04/11 11:27:45;;;;;;;6.85;1.85;;;12.30;76.60;;;;;;5020603;28;20577;-67
2022/04/11 11:30:13;;;;;;;7.70;2.20;;;12.30;76.10;;;;;;5027279;28;20029;-68
2022/04/11 11:32:40;;;;;;;4.93;1.50;;;12.40;76.30;;;;;;5017917;28;20397;-67
2022/04/11 11:35:09;;;;;;;3.88;1.63;;;12.40;76.00;;;;;;5020933;28;20489;-67
2022/04/11 11:37:35;;;;;;;5.03;1.70;;;12.40;76.30;;;;;;5026691;28;20034;-67
2022/04/11 11:40:03;;;;;;;12.07;2.42;;;12.50;76.70;;;;;;5015985;28;20572;-67
2022/04/11 11:42:38;;;;;;;2.45;1.40;;;12.60;76.50;;;;;;5025307;28;20033;-67
2022/04/11 11:45:06;;;;;;;5.20;1.80;;;12.60;76.70;;;;;;5028245;28;20559;-67
2022/04/11 11:47:32;;;;;;;3.58;1.50;;;12.70;76.70;;;;;;5018782;28;20405;-67
2022/04/11 11:50:06;;;;;;;4.57;1.70;;;12.70;78.50;;;;;;5032382;28;20048;-67
2022/04/11 11:52:32;;;;;;;6.22;1.80;;;12.70;77.20;;;;;;5016831;28;20044;-68
2022/04/11 11:55:02;;;;;;;7.65;1.80;;;12.80;76.70;;;;;;5021278;28;20026;-67
2022/04/11 11:57:29;;;;;;;4.15;1.90;;;12.80;76.80;;;;;;5015707;28;20041;-67
2022/04/11 12:00:07;;;;;;;4.10;2.00;;;12.80;76.20;;;;;;5028045;28;20437;-68
2022/04/11 12:05:30;;;;;;;2.70;1.63;;;12.90;77.30;;;;;;5031500;28;20064;-67
2022/04/11 12:08:02;;;;;;;7.35;2.50;;;12.90;76.00;;;;;;5030946;28;20037;-68
2022/04/11 12:10:29;;;;;;;8.52;1.92;;;12.90;75.70;;;;;;5031588;28;20041;-67
2022/04/11 12:12:54;;;;;;;5.18;2.10;;;13.00;75.70;;;;;;5031644;28;20036;-68
2022/04/11 12:15:21;;;;;;;7.38;2.28;;;13.00;75.50;;;;;;5025684;28;20033;-65
2022/04/11 12:17:48;;;;;;;2.55;1.70;;;13.10;75.80;;;;;;5032144;28;20037;-66
2022/04/11 12:20:19;;;;;;;2.58;1.67;;;13.20;75.40;;;;;;5030054;28;20037;-66
2022/04/11 12:23:01;;;;;;;9.40;2.38;;;13.20;74.60;;;;;;5032248;28;20495;-65
2022/04/11 12:25:48;;;;;;;5.30;2.50;;;13.20;75.30;;;;;;5014120;28;20034;-66
2022/04/11 12:28:15;;;;;;;5.07;2.17;;;13.30;75.90;;;;;;5023846;28;20493;-65
2022/04/11 12:30:45;;;;;;;8.13;2.58;;;13.30;75.60;;;;;;5019578;28;20045;-65
2022/04/11 12:33:36;;;;;;;5.10;2.10;;;13.30;75.60;;;;;;5016721;28;20046;-66
2022/04/11 12:36:16;;;;;;;8.02;2.90;;;13.30;76.00;;;;;;5026799;28;20116;-66
2022/04/11 12:38:56;;;;;;;3.85;1.70;;;13.30;76.10;;;;;;5028073;28;20030;-66
2022/04/11 12:41:31;;;;;;;3.17;1.50;;;13.40;77.30;;;;;;5029264;28;20033;-66
2022/04/11 12:44:07;;;;;;;4.68;2.20;;;13.30;77.60;;;;;;5028912;28;20473;-65
2022/04/11 12:46:37;;;;;;;6.03;2.33;;;13.30;77.10;;;;;;5023999;28;20035;-66
2022/04/11 12:49:04;;;;;;;5.65;2.25;;;13.40;77.00;;;;;;5029395;28;20061;-65
2022/04/11 12:51:30;;;;;;;6.18;2.65;;;13.40;77.50;;;;;;5030466;28;20033;-65
2022/04/11 12:54:04;;;;;;;5.47;2.50;;;13.40;78.10;;;;;;5029149;28;20624;-65
2022/04/11 12:56:40;;;;;;;5.88;2.15;;;13.40;78.10;;;;;;5028478;28;20033;-65
2022/04/11 12:59:07;;;;;;;8.40;2.13;;;13.50;77.90;;;;;;5028337;28;20061;-65
2022/04/11 13:02:09;;;;;;;5.22;2.13;;;13.40;78.00;;;;;;5027601;28;20049;-66
2022/04/11 13:04:37;;;;;;;3.80;2.20;;;13.50;77.80;;;;;;5005958;28;20121;-65